Airfield :
LOGIN :

Register | Disclaimer

   EN    FR    IT 

 










Legend :    VFR   Marginal VFR   IFR   Intensive IFR   Very Intensive IFR
Visi :
Ceiling :
>= 8 km
>= 3000ft
5 to 8 km
1000 to 3000 ft
1500m to 5 km
500 to 1000 ft
800 to 1500m
200 to 500 ft
< 800m
< 200 ft
Symbols :   Thunderstorms  Fog  Heavy snow  Heavy precipitations  Wind > 20 kt
SIGMETs :     Misc.  Thunderstorms  Icing  Turbulence  Mountain Waves  Volcanic Ashes






- Airport Elevation : 663 ft
- IATA code : BZK


UUBP - Bryansk

CURRENT METAR :
  • 021300Z 23009MPS 9999 SCT040 07/M06 Q1007 R16/CLRD70 NOSIG RMK QFE737/0983

EXPIRED METARs :
  • 021230Z 23009MPS 9999 SCT040 07/M07 Q1007 R16/CLRD70 NOSIG RMK QFE737/0983
  • 021200Z 22008MPS 9999 SCT040 07/M05 Q1007 R16/CLRD70 NOSIG RMK QFE737/0983
  • 021130Z 24008G13MPS 9999 SCT040 06/M05 Q1007 R16/CLRD70 NOSIG RMK QFE737/0983
  • 021100Z 23010MPS 9999 SCT040 05/M06 Q1007 R16/CLRD70 NOSIG RMK QFE737/0983
  • 021030Z 23009MPS 9999 SCT040 06/M05 Q1007 R16/CLRD70 NOSIG RMK QFE737/0983

TAF TAF UUBP
Valid from the 02 at 12:00 until the 02 at 21:00 UTC


021107Z 0212/0221 22006G11MPS 9999 BKN018
TEMPO 0212/0221 24008G13MPS -SHRA BKN011CB



MET'MAP, your aeronautical weather chart ! - Copyright ORBIFLY December 2007 - Disclaimer

ORBIFLY MET'MAP TEAM :

Programming & Development : Alexandra Zaïnal
Concept & original design : Baudouin d'Aumeries
Assistance for programming : Marc-Olivier Méhu
Technical & hardware support : Manuel Goepfert

Contact : metmap@orbifly.com




SOURCES & CREDITS :

   NOAA